sensor_id;sensor_type;location;lat;lon;timestamp;P1;durP1;ratioP1;P2;durP2;ratioP2
56824;SDS011;42705;50.326;18.772;2023-08-20T00:03:12;21.20;;;18.40;;
56824;SDS011;42705;50.326;18.772;2023-08-20T00:08:34;20.70;;;18.20;;
56824;SDS011;42705;50.326;18.772;2023-08-20T00:13:56;20.80;;;18.50;;
56824;SDS011;42705;50.326;18.772;2023-08-20T00:19:18;22.60;;;17.70;;
56824;SDS011;42705;50.326;18.772;2023-08-20T00:24:39;20.20;;;17.90;;
56824;SDS011;42705;50.326;18.772;2023-08-20T00:30:01;19.90;;;17.80;;
56824;SDS011;42705;50.326;18.772;2023-08-20T00:35:22;21.90;;;17.70;;
56824;SDS011;42705;50.326;18.772;2023-08-20T00:40:43;19.60;;;16.80;;
56824;SDS011;42705;50.326;18.772;2023-08-20T00:46:04;18.60;;;16.00;;
56824;SDS011;42705;50.326;18.772;2023-08-20T00:51:28;23.20;;;18.30;;
56824;SDS011;42705;50.326;18.772;2023-08-20T00:56:49;21.30;;;18.40;;
56824;SDS011;42705;50.326;18.772;2023-08-20T01:02:11;19.60;;;17.40;;
56824;SDS011;42705;50.326;18.772;2023-08-20T01:07:43;21.70;;;18.20;;
56824;SDS011;42705;50.326;18.772;2023-08-20T01:13:20;21.70;;;19.40;;
56824;SDS011;42705;50.326;18.772;2023-08-20T01:18:42;20.80;;;18.00;;
56824;SDS011;42705;50.326;18.772;2023-08-20T01:24:23;18.40;;;16.00;;
56824;SDS011;42705;50.326;18.772;2023-08-20T01:30:00;21.90;;;18.10;;
56824;SDS011;42705;50.326;18.772;2023-08-20T01:35:25;22.10;;;18.80;;
56824;SDS011;42705;50.326;18.772;2023-08-20T01:40:56;20.00;;;17.60;;
56824;SDS011;42705;50.326;18.772;2023-08-20T01:46:18;22.30;;;17.70;;
56824;SDS011;42705;50.326;18.772;2023-08-20T01:51:39;20.40;;;18.30;;
56824;SDS011;42705;50.326;18.772;2023-08-20T01:57:00;24.10;;;18.10;;
56824;SDS011;42705;50.326;18.772;2023-08-20T02:02:22;18.60;;;16.70;;
56824;SDS011;42705;50.326;18.772;2023-08-20T02:07:43;24.90;;;17.80;;
56824;SDS011;42705;50.326;18.772;2023-08-20T02:13:04;21.40;;;18.30;;
56824;SDS011;42705;50.326;18.772;2023-08-20T02:18:26;19.60;;;17.60;;
56824;SDS011;42705;50.326;18.772;2023-08-20T02:23:48;18.00;;;15.80;;
56824;SDS011;42705;50.326;18.772;2023-08-20T02:29:09;19.20;;;16.60;;
56824;SDS011;42705;50.326;18.772;2023-08-20T02:34:31;19.10;;;16.90;;
56824;SDS011;42705;50.326;18.772;2023-08-20T02:39:52;17.20;;;15.20;;
56824;SDS011;42705;50.326;18.772;2023-08-20T02:45:13;18.70;;;16.90;;
56824;SDS011;42705;50.326;18.772;2023-08-20T02:50:34;18.70;;;16.50;;
56824;SDS011;42705;50.326;18.772;2023-08-20T02:55:55;21.40;;;16.40;;
56824;SDS011;42705;50.326;18.772;2023-08-20T03:01:20;19.80;;;17.70;;
56824;SDS011;42705;50.326;18.772;2023-08-20T03:06:45;21.30;;;18.40;;
56824;SDS011;42705;50.326;18.772;2023-08-20T03:12:06;22.10;;;17.10;;
56824;SDS011;42705;50.326;18.772;2023-08-20T03:17:28;20.30;;;18.10;;
56824;SDS011;42705;50.326;18.772;2023-08-20T03:22:49;21.20;;;17.50;;
56824;SDS011;42705;50.326;18.772;2023-08-20T03:28:11;25.20;;;18.50;;
56824;SDS011;42705;50.326;18.772;2023-08-20T03:33:32;19.80;;;17.70;;
56824;SDS011;42705;50.326;18.772;2023-08-20T03:38:53;19.90;;;17.40;;
56824;SDS011;42705;50.326;18.772;2023-08-20T03:44:16;18.90;;;15.60;;
56824;SDS011;42705;50.326;18.772;2023-08-20T03:49:38;23.40;;;17.70;;
56824;SDS011;42705;50.326;18.772;2023-08-20T03:54:59;26.50;;;19.60;;
56824;SDS011;42705;50.326;18.772;2023-08-20T04:00:20;19.60;;;17.60;;
56824;SDS011;42705;50.326;18.772;2023-08-20T04:05:42;22.00;;;16.40;;
56824;SDS011;42705;50.326;18.772;2023-08-20T04:11:03;21.50;;;18.00;;
56824;SDS011;42705;50.326;18.772;2023-08-20T04:16:24;21.50;;;18.20;;
56824;SDS011;42705;50.326;18.772;2023-08-20T04:21:45;20.20;;;16.50;;
56824;SDS011;42705;50.326;18.772;2023-08-20T04:27:07;19.60;;;17.50;;
56824;SDS011;42705;50.326;18.772;2023-08-20T04:32:29;21.50;;;18.80;;
56824;SDS011;42705;50.326;18.772;2023-08-20T04:37:50;20.40;;;18.20;;
56824;SDS011;42705;50.326;18.772;2023-08-20T04:43:11;20.90;;;18.30;;
56824;SDS011;42705;50.326;18.772;2023-08-20T04:48:33;24.00;;;18.60;;
56824;SDS011;42705;50.326;18.772;2023-08-20T04:53:55;20.90;;;18.70;;
56824;SDS011;42705;50.326;18.772;2023-08-20T04:59:16;18.50;;;16.70;;
56824;SDS011;42705;50.326;18.772;2023-08-20T05:05:04;20.90;;;18.00;;
56824;SDS011;42705;50.326;18.772;2023-08-20T05:10:26;20.30;;;17.50;;
56824;SDS011;42705;50.326;18.772;2023-08-20T05:15:47;21.40;;;17.30;;
56824;SDS011;42705;50.326;18.772;2023-08-20T05:21:08;22.00;;;19.10;;
56824;SDS011;42705;50.326;18.772;2023-08-20T05:26:32;24.80;;;19.30;;
56824;SDS011;42705;50.326;18.772;2023-08-20T05:31:56;22.50;;;19.80;;
56824;SDS011;42705;50.326;18.772;2023-08-20T05:37:18;18.70;;;16.60;;
56824;SDS011;42705;50.326;18.772;2023-08-20T05:42:40;20.40;;;17.50;;
56824;SDS011;42705;50.326;18.772;2023-08-20T05:48:02;22.80;;;17.80;;
56824;SDS011;42705;50.326;18.772;2023-08-20T05:53:23;19.10;;;17.10;;
56824;SDS011;42705;50.326;18.772;2023-08-20T06:04:06;18.60;;;16.30;;
56824;SDS011;42705;50.326;18.772;2023-08-20T06:09:27;19.50;;;16.70;;
56824;SDS011;42705;50.326;18.772;2023-08-20T06:14:48;18.30;;;16.30;;
56824;SDS011;42705;50.326;18.772;2023-08-20T06:20:10;16.30;;;14.30;;
56824;SDS011;42705;50.326;18.772;2023-08-20T06:25:32;18.30;;;15.60;;
56824;SDS011;42705;50.326;18.772;2023-08-20T06:30:53;19.20;;;15.10;;
56824;SDS011;42705;50.326;18.772;2023-08-20T06:36:14;20.70;;;16.80;;
56824;SDS011;42705;50.326;18.772;2023-08-20T06:41:35;18.00;;;16.20;;
56824;SDS011;42705;50.326;18.772;2023-08-20T06:46:57;20.70;;;15.00;;
56824;SDS011;42705;50.326;18.772;2023-08-20T06:52:18;19.60;;;15.40;;
56824;SDS011;42705;50.326;18.772;2023-08-20T06:57:39;17.10;;;15.30;;
56824;SDS011;42705;50.326;18.772;2023-08-20T07:03:00;21.80;;;15.60;;
56824;SDS011;42705;50.326;18.772;2023-08-20T07:08:21;16.70;;;14.90;;
56824;SDS011;42705;50.326;18.772;2023-08-20T07:13:43;19.80;;;15.70;;
56824;SDS011;42705;50.326;18.772;2023-08-20T07:19:04;15.10;;;13.40;;
56824;SDS011;42705;50.326;18.772;2023-08-20T07:24:25;17.50;;;15.10;;
56824;SDS011;42705;50.326;18.772;2023-08-20T07:29:46;16.40;;;14.70;;
56824;SDS011;42705;50.326;18.772;2023-08-20T07:35:07;16.20;;;14.10;;
56824;SDS011;42705;50.326;18.772;2023-08-20T07:40:29;15.50;;;13.70;;
56824;SDS011;42705;50.326;18.772;2023-08-20T07:45:50;16.70;;;13.20;;
56824;SDS011;42705;50.326;18.772;2023-08-20T07:51:11;16.00;;;12.80;;
56824;SDS011;42705;50.326;18.772;2023-08-20T07:56:32;17.30;;;14.00;;
56824;SDS011;42705;50.326;18.772;2023-08-20T08:01:53;16.10;;;13.00;;
56824;SDS011;42705;50.326;18.772;2023-08-20T08:07:15;14.20;;;12.30;;
56824;SDS011;42705;50.326;18.772;2023-08-20T08:12:36;13.80;;;12.40;;
56824;SDS011;42705;50.326;18.772;2023-08-20T08:17:57;14.80;;;13.30;;
56824;SDS011;42705;50.326;18.772;2023-08-20T08:23:18;13.90;;;12.60;;
56824;SDS011;42705;50.326;18.772;2023-08-20T08:28:39;12.60;;;10.90;;
56824;SDS011;42705;50.326;18.772;2023-08-20T08:34:01;14.20;;;12.50;;
56824;SDS011;42705;50.326;18.772;2023-08-20T08:39:24;15.60;;;12.50;;
56824;SDS011;42705;50.326;18.772;2023-08-20T08:44:45;12.90;;;11.60;;
56824;SDS011;42705;50.326;18.772;2023-08-20T08:50:07;12.90;;;11.70;;
56824;SDS011;42705;50.326;18.772;2023-08-20T08:55:29;12.30;;;11.10;;
56824;SDS011;42705;50.326;18.772;2023-08-20T09:00:51;14.80;;;12.00;;
56824;SDS011;42705;50.326;18.772;2023-08-20T09:06:12;13.20;;;11.90;;
56824;SDS011;42705;50.326;18.772;2023-08-20T09:11:36;11.80;;;10.80;;
56824;SDS011;42705;50.326;18.772;2023-08-20T09:16:58;13.50;;;11.00;;
56824;SDS011;42705;50.326;18.772;2023-08-20T09:22:21;11.90;;;10.80;;
56824;SDS011;42705;50.326;18.772;2023-08-20T09:27:42;11.50;;;10.40;;
56824;SDS011;42705;50.326;18.772;2023-08-20T09:38:28;11.40;;;10.30;;
56824;SDS011;42705;50.326;18.772;2023-08-20T09:43:50;9.60;;;8.70;;
56824;SDS011;42705;50.326;18.772;2023-08-20T09:49:17;8.00;;;7.40;;
56824;SDS011;42705;50.326;18.772;2023-08-20T09:55:03;8.10;;;7.10;;
56824;SDS011;42705;50.326;18.772;2023-08-20T10:00:26;7.90;;;7.20;;
56824;SDS011;42705;50.326;18.772;2023-08-20T10:05:49;8.00;;;7.30;;
56824;SDS011;42705;50.326;18.772;2023-08-20T10:11:11;8.20;;;7.40;;
56824;SDS011;42705;50.326;18.772;2023-08-20T10:16:32;8.10;;;7.40;;
56824;SDS011;42705;50.326;18.772;2023-08-20T10:21:54;8.90;;;7.50;;
56824;SDS011;42705;50.326;18.772;2023-08-20T10:27:23;7.80;;;6.90;;
56824;SDS011;42705;50.326;18.772;2023-08-20T10:32:50;7.90;;;7.10;;
56824;SDS011;42705;50.326;18.772;2023-08-20T10:38:13;8.40;;;7.20;;
56824;SDS011;42705;50.326;18.772;2023-08-20T10:43:39;7.60;;;6.90;;
56824;SDS011;42705;50.326;18.772;2023-08-20T10:49:02;7.40;;;6.80;;
56824;SDS011;42705;50.326;18.772;2023-08-20T10:54:24;9.00;;;8.10;;
56824;SDS011;42705;50.326;18.772;2023-08-20T11:05:17;8.50;;;7.50;;
56824;SDS011;42705;50.326;18.772;2023-08-20T11:10:39;9.70;;;8.80;;
56824;SDS011;42705;50.326;18.772;2023-08-20T11:16:01;9.10;;;8.30;;
56824;SDS011;42705;50.326;18.772;2023-08-20T11:21:23;7.80;;;7.00;;
56824;SDS011;42705;50.326;18.772;2023-08-20T11:26:44;8.10;;;7.40;;
56824;SDS011;42705;50.326;18.772;2023-08-20T11:32:05;7.90;;;7.20;;
56824;SDS011;42705;50.326;18.772;2023-08-20T11:37:27;8.80;;;8.10;;
56824;SDS011;42705;50.326;18.772;2023-08-20T11:42:48;9.10;;;7.90;;
56824;SDS011;42705;50.326;18.772;2023-08-20T11:48:09;8.20;;;7.40;;
56824;SDS011;42705;50.326;18.772;2023-08-20T11:53:30;8.90;;;7.80;;
56824;SDS011;42705;50.326;18.772;2023-08-20T11:58:51;6.90;;;6.40;;
56824;SDS011;42705;50.326;18.772;2023-08-20T12:04:13;7.80;;;7.00;;
56824;SDS011;42705;50.326;18.772;2023-08-20T12:09:34;7.60;;;6.70;;
56824;SDS011;42705;50.326;18.772;2023-08-20T12:14:55;6.80;;;6.10;;
56824;SDS011;42705;50.326;18.772;2023-08-20T12:20:17;6.30;;;5.70;;
56824;SDS011;42705;50.326;18.772;2023-08-20T12:25:38;7.00;;;5.90;;
56824;SDS011;42705;50.326;18.772;2023-08-20T12:31:00;6.50;;;5.90;;
56824;SDS011;42705;50.326;18.772;2023-08-20T12:36:21;6.00;;;5.30;;
56824;SDS011;42705;50.326;18.772;2023-08-20T12:41:42;5.60;;;5.10;;
56824;SDS011;42705;50.326;18.772;2023-08-20T12:47:04;5.80;;;5.30;;
56824;SDS011;42705;50.326;18.772;2023-08-20T12:52:25;6.20;;;5.50;;
56824;SDS011;42705;50.326;18.772;2023-08-20T12:57:53;5.80;;;5.30;;
56824;SDS011;42705;50.326;18.772;2023-08-20T13:03:17;5.30;;;4.80;;
56824;SDS011;42705;50.326;18.772;2023-08-20T13:08:39;4.90;;;4.50;;
56824;SDS011;42705;50.326;18.772;2023-08-20T13:14:02;5.70;;;4.40;;
56824;SDS011;42705;50.326;18.772;2023-08-20T13:19:24;4.30;;;4.00;;
56824;SDS011;42705;50.326;18.772;2023-08-20T13:24:45;4.50;;;3.70;;
56824;SDS011;42705;50.326;18.772;2023-08-20T13:30:07;4.30;;;3.90;;
56824;SDS011;42705;50.326;18.772;2023-08-20T13:35:29;3.60;;;3.30;;
56824;SDS011;42705;50.326;18.772;2023-08-20T13:40:50;5.00;;;3.20;;
56824;SDS011;42705;50.326;18.772;2023-08-20T13:46:12;3.30;;;3.10;;
56824;SDS011;42705;50.326;18.772;2023-08-20T13:51:33;3.10;;;2.90;;
56824;SDS011;42705;50.326;18.772;2023-08-20T13:56:54;3.10;;;2.80;;
56824;SDS011;42705;50.326;18.772;2023-08-20T14:02:15;3.00;;;2.80;;
56824;SDS011;42705;50.326;18.772;2023-08-20T14:07:37;3.80;;;2.60;;
56824;SDS011;42705;50.326;18.772;2023-08-20T14:12:58;3.20;;;2.60;;
56824;SDS011;42705;50.326;18.772;2023-08-20T14:18:19;3.20;;;2.80;;
56824;SDS011;42705;50.326;18.772;2023-08-20T14:23:40;3.10;;;2.70;;
56824;SDS011;42705;50.326;18.772;2023-08-20T14:29:01;3.00;;;2.60;;
56824;SDS011;42705;50.326;18.772;2023-08-20T14:34:22;2.90;;;2.70;;
56824;SDS011;42705;50.326;18.772;2023-08-20T14:39:43;2.50;;;2.40;;
56824;SDS011;42705;50.326;18.772;2023-08-20T14:45:05;2.70;;;2.50;;
56824;SDS011;42705;50.326;18.772;2023-08-20T14:50:26;4.50;;;2.50;;
56824;SDS011;42705;50.326;18.772;2023-08-20T14:55:48;3.10;;;2.80;;
56824;SDS011;42705;50.326;18.772;2023-08-20T15:01:09;2.70;;;2.60;;
56824;SDS011;42705;50.326;18.772;2023-08-20T15:06:30;3.10;;;2.90;;
56824;SDS011;42705;50.326;18.772;2023-08-20T15:11:52;3.10;;;2.90;;
56824;SDS011;42705;50.326;18.772;2023-08-20T15:17:13;3.20;;;2.70;;
56824;SDS011;42705;50.326;18.772;2023-08-20T15:22:34;3.20;;;3.00;;
56824;SDS011;42705;50.326;18.772;2023-08-20T15:27:55;3.50;;;3.20;;
56824;SDS011;42705;50.326;18.772;2023-08-20T15:33:16;3.00;;;2.80;;
56824;SDS011;42705;50.326;18.772;2023-08-20T15:38:38;4.90;;;3.30;;
56824;SDS011;42705;50.326;18.772;2023-08-20T15:44:01;4.60;;;2.90;;
56824;SDS011;42705;50.326;18.772;2023-08-20T15:49:22;3.60;;;3.30;;
56824;SDS011;42705;50.326;18.772;2023-08-20T15:54:44;3.70;;;3.40;;
56824;SDS011;42705;50.326;18.772;2023-08-20T16:00:06;5.00;;;3.70;;
56824;SDS011;42705;50.326;18.772;2023-08-20T16:05:37;3.30;;;3.10;;
56824;SDS011;42705;50.326;18.772;2023-08-20T16:10:58;4.10;;;3.80;;
56824;SDS011;42705;50.326;18.772;2023-08-20T16:16:19;4.10;;;3.40;;
56824;SDS011;42705;50.326;18.772;2023-08-20T16:21:40;5.60;;;3.70;;
56824;SDS011;42705;50.326;18.772;2023-08-20T16:27:02;5.30;;;3.80;;
56824;SDS011;42705;50.326;18.772;2023-08-20T16:32:24;4.30;;;3.90;;
56824;SDS011;42705;50.326;18.772;2023-08-20T16:37:45;4.30;;;3.90;;
56824;SDS011;42705;50.326;18.772;2023-08-20T16:43:06;5.20;;;4.00;;
56824;SDS011;42705;50.326;18.772;2023-08-20T16:48:27;4.90;;;4.20;;
56824;SDS011;42705;50.326;18.772;2023-08-20T16:53:52;4.80;;;4.30;;
56824;SDS011;42705;50.326;18.772;2023-08-20T16:59:14;4.50;;;4.10;;
56824;SDS011;42705;50.326;18.772;2023-08-20T17:04:35;5.20;;;4.70;;
56824;SDS011;42705;50.326;18.772;2023-08-20T17:09:57;4.90;;;4.50;;
56824;SDS011;42705;50.326;18.772;2023-08-20T17:15:18;5.60;;;4.40;;
56824;SDS011;42705;50.326;18.772;2023-08-20T17:20:42;5.00;;;4.50;;
56824;SDS011;42705;50.326;18.772;2023-08-20T17:26:03;6.20;;;5.50;;
56824;SDS011;42705;50.326;18.772;2023-08-20T17:31:24;6.90;;;5.50;;
56824;SDS011;42705;50.326;18.772;2023-08-20T17:36:45;5.90;;;5.30;;
56824;SDS011;42705;50.326;18.772;2023-08-20T17:42:07;6.20;;;5.40;;
56824;SDS011;42705;50.326;18.772;2023-08-20T17:47:28;6.70;;;6.10;;
56824;SDS011;42705;50.326;18.772;2023-08-20T17:52:49;6.30;;;5.70;;
56824;SDS011;42705;50.326;18.772;2023-08-20T17:58:10;8.20;;;6.10;;
56824;SDS011;42705;50.326;18.772;2023-08-20T18:03:31;6.80;;;6.00;;
56824;SDS011;42705;50.326;18.772;2023-08-20T18:08:52;7.10;;;6.40;;
56824;SDS011;42705;50.326;18.772;2023-08-20T18:14:14;7.70;;;6.80;;
56824;SDS011;42705;50.326;18.772;2023-08-20T18:19:36;9.60;;;7.00;;
56824;SDS011;42705;50.326;18.772;2023-08-20T18:24:57;9.40;;;7.20;;
56824;SDS011;42705;50.326;18.772;2023-08-20T18:30:18;8.80;;;6.80;;
56824;SDS011;42705;50.326;18.772;2023-08-20T18:35:39;8.60;;;7.90;;
56824;SDS011;42705;50.326;18.772;2023-08-20T18:46:24;10.60;;;8.00;;
56824;SDS011;42705;50.326;18.772;2023-08-20T18:51:45;7.90;;;6.90;;
56824;SDS011;42705;50.326;18.772;2023-08-20T18:57:06;8.00;;;7.30;;
56824;SDS011;42705;50.326;18.772;2023-08-20T19:02:30;8.60;;;7.80;;
56824;SDS011;42705;50.326;18.772;2023-08-20T19:07:52;8.60;;;7.80;;
56824;SDS011;42705;50.326;18.772;2023-08-20T19:13:14;8.50;;;7.80;;
56824;SDS011;42705;50.326;18.772;2023-08-20T19:18:35;7.70;;;7.00;;
56824;SDS011;42705;50.326;18.772;2023-08-20T19:23:58;8.40;;;7.50;;
56824;SDS011;42705;50.326;18.772;2023-08-20T19:29:21;10.20;;;7.70;;
56824;SDS011;42705;50.326;18.772;2023-08-20T19:40:04;9.60;;;8.40;;
56824;SDS011;42705;50.326;18.772;2023-08-20T19:45:29;10.30;;;9.30;;
56824;SDS011;42705;50.326;18.772;2023-08-20T19:50:52;9.30;;;8.50;;
56824;SDS011;42705;50.326;18.772;2023-08-20T19:56:15;9.80;;;8.90;;
56824;SDS011;42705;50.326;18.772;2023-08-20T20:01:49;9.90;;;8.60;;
56824;SDS011;42705;50.326;18.772;2023-08-20T20:07:12;11.90;;;8.50;;
56824;SDS011;42705;50.326;18.772;2023-08-20T20:12:34;9.60;;;8.70;;
56824;SDS011;42705;50.326;18.772;2023-08-20T20:17:55;13.60;;;11.10;;
56824;SDS011;42705;50.326;18.772;2023-08-20T20:23:17;13.00;;;10.50;;
56824;SDS011;42705;50.326;18.772;2023-08-20T20:28:38;11.20;;;10.10;;
56824;SDS011;42705;50.326;18.772;2023-08-20T20:33:59;17.10;;;13.00;;
56824;SDS011;42705;50.326;18.772;2023-08-20T20:39:21;25.50;;;17.00;;
56824;SDS011;42705;50.326;18.772;2023-08-20T20:50:04;17.00;;;12.20;;
56824;SDS011;42705;50.326;18.772;2023-08-20T20:55:27;14.30;;;12.00;;
56824;SDS011;42705;50.326;18.772;2023-08-20T21:00:48;18.90;;;13.20;;
56824;SDS011;42705;50.326;18.772;2023-08-20T21:06:09;21.40;;;16.00;;
56824;SDS011;42705;50.326;18.772;2023-08-20T21:11:30;12.70;;;11.30;;
56824;SDS011;42705;50.326;18.772;2023-08-20T21:16:51;16.00;;;12.40;;
56824;SDS011;42705;50.326;18.772;2023-08-20T21:22:13;17.30;;;12.80;;
56824;SDS011;42705;50.326;18.772;2023-08-20T21:27:35;17.60;;;14.00;;
56824;SDS011;42705;50.326;18.772;2023-08-20T21:32:56;18.40;;;13.50;;
56824;SDS011;42705;50.326;18.772;2023-08-20T21:38:17;20.30;;;15.70;;
56824;SDS011;42705;50.326;18.772;2023-08-20T21:43:39;14.50;;;11.60;;
56824;SDS011;42705;50.326;18.772;2023-08-20T21:49:01;13.90;;;12.20;;
56824;SDS011;42705;50.326;18.772;2023-08-20T21:54:23;17.50;;;12.90;;
56824;SDS011;42705;50.326;18.772;2023-08-20T21:59:48;14.90;;;12.10;;
56824;SDS011;42705;50.326;18.772;2023-08-20T22:05:12;13.20;;;11.80;;
56824;SDS011;42705;50.326;18.772;2023-08-20T22:10:33;12.80;;;11.50;;
56824;SDS011;42705;50.326;18.772;2023-08-20T22:15:55;15.00;;;11.90;;
56824;SDS011;42705;50.326;18.772;2023-08-20T22:21:17;12.20;;;11.00;;
56824;SDS011;42705;50.326;18.772;2023-08-20T22:26:39;12.70;;;11.40;;
56824;SDS011;42705;50.326;18.772;2023-08-20T22:32:01;15.00;;;12.60;;
56824;SDS011;42705;50.326;18.772;2023-08-20T22:37:22;14.00;;;12.50;;
56824;SDS011;42705;50.326;18.772;2023-08-20T22:42:46;14.80;;;13.00;;
56824;SDS011;42705;50.326;18.772;2023-08-20T22:48:07;13.80;;;12.30;;
56824;SDS011;42705;50.326;18.772;2023-08-20T22:53:28;13.50;;;11.70;;
56824;SDS011;42705;50.326;18.772;2023-08-20T22:58:50;13.40;;;11.50;;
56824;SDS011;42705;50.326;18.772;2023-08-20T23:04:11;14.80;;;12.50;;
56824;SDS011;42705;50.326;18.772;2023-08-20T23:09:33;15.30;;;12.50;;
56824;SDS011;42705;50.326;18.772;2023-08-20T23:14:54;13.70;;;12.20;;
56824;SDS011;42705;50.326;18.772;2023-08-20T23:20:16;15.60;;;12.90;;
56824;SDS011;42705;50.326;18.772;2023-08-20T23:25:37;12.70;;;11.50;;
56824;SDS011;42705;50.326;18.772;2023-08-20T23:30:58;14.00;;;12.50;;
56824;SDS011;42705;50.326;18.772;2023-08-20T23:36:19;17.30;;;12.60;;
56824;SDS011;42705;50.326;18.772;2023-08-20T23:41:41;17.10;;;12.50;;
56824;SDS011;42705;50.326;18.772;2023-08-20T23:47:04;14.60;;;12.70;;
56824;SDS011;42705;50.326;18.772;2023-08-20T23:52:26;16.00;;;13.00;;
56824;SDS011;42705;50.326;18.772;2023-08-20T23:57:47;17.70;;;12.50;;
